sensor_id;sensor_type;location;lat;lon;timestamp;P1;durP1;ratioP1;P2;durP2;ratioP2
5612;SDS011;63463;53.586;9.928;2023-06-22T00:02:18;7.47;;;6.50;;
5612;SDS011;63463;53.586;9.928;2023-06-22T00:04:57;8.63;;;6.00;;
5612;SDS011;63463;53.586;9.928;2023-06-22T00:07:23;7.73;;;5.93;;
5612;SDS011;63463;53.586;9.928;2023-06-22T00:09:50;11.43;;;5.60;;
5612;SDS011;63463;53.586;9.928;2023-06-22T00:12:19;6.33;;;5.17;;
5612;SDS011;63463;53.586;9.928;2023-06-22T00:14:45;6.43;;;5.40;;
5612;SDS011;63463;53.586;9.928;2023-06-22T00:17:12;7.73;;;5.67;;
5612;SDS011;63463;53.586;9.928;2023-06-22T00:19:41;6.10;;;5.60;;
5612;SDS011;63463;53.586;9.928;2023-06-22T00:22:08;8.50;;;5.33;;
5612;SDS011;63463;53.586;9.928;2023-06-22T00:24:35;12.20;;;6.30;;
5612;SDS011;63463;53.586;9.928;2023-06-22T00:27:01;8.80;;;6.33;;
5612;SDS011;63463;53.586;9.928;2023-06-22T00:29:27;7.07;;;5.70;;
5612;SDS011;63463;53.586;9.928;2023-06-22T00:31:53;7.40;;;6.63;;
5612;SDS011;63463;53.586;9.928;2023-06-22T00:34:19;7.63;;;5.80;;
5612;SDS011;63463;53.586;9.928;2023-06-22T00:36:45;8.17;;;5.70;;
5612;SDS011;63463;53.586;9.928;2023-06-22T00:39:13;8.43;;;6.70;;
5612;SDS011;63463;53.586;9.928;2023-06-22T00:41:39;9.90;;;6.87;;
5612;SDS011;63463;53.586;9.928;2023-06-22T00:44:05;11.17;;;6.70;;
5612;SDS011;63463;53.586;9.928;2023-06-22T00:46:31;9.17;;;5.73;;
5612;SDS011;63463;53.586;9.928;2023-06-22T00:49:09;7.93;;;6.17;;
5612;SDS011;63463;53.586;9.928;2023-06-22T00:51:36;8.50;;;6.17;;
5612;SDS011;63463;53.586;9.928;2023-06-22T00:54:10;9.67;;;5.90;;
5612;SDS011;63463;53.586;9.928;2023-06-22T00:56:50;10.80;;;7.37;;
5612;SDS011;63463;53.586;9.928;2023-06-22T00:59:36;14.87;;;8.47;;
5612;SDS011;63463;53.586;9.928;2023-06-22T01:02:04;12.53;;;7.93;;
5612;SDS011;63463;53.586;9.928;2023-06-22T01:04:40;10.17;;;7.47;;
5612;SDS011;63463;53.586;9.928;2023-06-22T01:07:31;9.90;;;7.60;;
5612;SDS011;63463;53.586;9.928;2023-06-22T01:10:07;8.43;;;7.30;;
5612;SDS011;63463;53.586;9.928;2023-06-22T01:12:36;10.90;;;8.10;;
5612;SDS011;63463;53.586;9.928;2023-06-22T01:15:16;12.47;;;7.80;;
5612;SDS011;63463;53.586;9.928;2023-06-22T01:17:44;11.80;;;8.10;;
5612;SDS011;63463;53.586;9.928;2023-06-22T01:20:14;8.20;;;6.70;;
5612;SDS011;63463;53.586;9.928;2023-06-22T01:23:09;13.63;;;8.03;;
5612;SDS011;63463;53.586;9.928;2023-06-22T01:25:46;12.00;;;8.60;;
5612;SDS011;63463;53.586;9.928;2023-06-22T01:30:56;11.50;;;8.80;;
5612;SDS011;63463;53.586;9.928;2023-06-22T01:33:34;11.27;;;8.30;;
5612;SDS011;63463;53.586;9.928;2023-06-22T01:36:01;17.47;;;8.33;;
5612;SDS011;63463;53.586;9.928;2023-06-22T01:38:28;16.00;;;8.87;;
5612;SDS011;63463;53.586;9.928;2023-06-22T01:41:02;11.30;;;8.50;;
5612;SDS011;63463;53.586;9.928;2023-06-22T01:43:29;15.83;;;9.43;;
5612;SDS011;63463;53.586;9.928;2023-06-22T01:45:56;11.47;;;8.50;;
5612;SDS011;63463;53.586;9.928;2023-06-22T01:48:46;13.00;;;8.27;;
5612;SDS011;63463;53.586;9.928;2023-06-22T01:51:14;11.87;;;9.20;;
5612;SDS011;63463;53.586;9.928;2023-06-22T01:53:43;17.93;;;8.50;;
5612;SDS011;63463;53.586;9.928;2023-06-22T01:56:12;10.47;;;8.00;;
5612;SDS011;63463;53.586;9.928;2023-06-22T01:58:41;16.10;;;8.30;;
5612;SDS011;63463;53.586;9.928;2023-06-22T02:01:14;10.53;;;8.00;;
5612;SDS011;63463;53.586;9.928;2023-06-22T02:04:06;11.80;;;9.20;;
5612;SDS011;63463;53.586;9.928;2023-06-22T02:06:33;19.93;;;9.73;;
5612;SDS011;63463;53.586;9.928;2023-06-22T02:09:35;17.63;;;9.10;;
5612;SDS011;63463;53.586;9.928;2023-06-22T02:11:54;17.23;;;8.73;;
5612;SDS011;63463;53.586;9.928;2023-06-22T02:14:27;14.30;;;9.30;;
5612;SDS011;63463;53.586;9.928;2023-06-22T02:16:53;15.07;;;9.07;;
5612;SDS011;63463;53.586;9.928;2023-06-22T02:19:26;11.83;;;8.63;;
5612;SDS011;63463;53.586;9.928;2023-06-22T02:21:52;14.17;;;9.13;;
5612;SDS011;63463;53.586;9.928;2023-06-22T02:24:19;13.97;;;9.30;;
5612;SDS011;63463;53.586;9.928;2023-06-22T02:26:51;16.73;;;8.20;;
5612;SDS011;63463;53.586;9.928;2023-06-22T02:29:20;12.97;;;9.03;;
5612;SDS011;63463;53.586;9.928;2023-06-22T02:31:46;15.97;;;9.20;;
5612;SDS011;63463;53.586;9.928;2023-06-22T02:34:12;13.87;;;9.13;;
5612;SDS011;63463;53.586;9.928;2023-06-22T02:36:43;14.50;;;8.87;;
5612;SDS011;63463;53.586;9.928;2023-06-22T02:39:15;16.80;;;9.80;;
5612;SDS011;63463;53.586;9.928;2023-06-22T02:41:41;20.77;;;9.27;;
5612;SDS011;63463;53.586;9.928;2023-06-22T02:44:08;15.97;;;10.40;;
5612;SDS011;63463;53.586;9.928;2023-06-22T02:46:35;15.23;;;10.07;;
5612;SDS011;63463;53.586;9.928;2023-06-22T02:49:05;15.83;;;9.40;;
5612;SDS011;63463;53.586;9.928;2023-06-22T02:51:37;18.40;;;10.30;;
5612;SDS011;63463;53.586;9.928;2023-06-22T02:54:07;16.23;;;10.33;;
5612;SDS011;63463;53.586;9.928;2023-06-22T02:56:33;16.90;;;10.00;;
5612;SDS011;63463;53.586;9.928;2023-06-22T03:01:55;18.53;;;10.23;;
5612;SDS011;63463;53.586;9.928;2023-06-22T03:04:22;18.57;;;10.30;;
5612;SDS011;63463;53.586;9.928;2023-06-22T03:06:50;14.00;;;10.27;;
5612;SDS011;63463;53.586;9.928;2023-06-22T03:09:22;12.53;;;9.80;;
5612;SDS011;63463;53.586;9.928;2023-06-22T03:11:54;14.47;;;10.80;;
5612;SDS011;63463;53.586;9.928;2023-06-22T03:14:26;15.73;;;11.03;;
5612;SDS011;63463;53.586;9.928;2023-06-22T03:17:04;14.47;;;9.40;;
5612;SDS011;63463;53.586;9.928;2023-06-22T03:19:31;15.50;;;10.60;;
5612;SDS011;63463;53.586;9.928;2023-06-22T03:22:03;14.87;;;10.30;;
5612;SDS011;63463;53.586;9.928;2023-06-22T03:24:29;14.67;;;10.47;;
5612;SDS011;63463;53.586;9.928;2023-06-22T03:26:59;23.70;;;10.77;;
5612;SDS011;63463;53.586;9.928;2023-06-22T03:29:31;15.50;;;10.70;;
5612;SDS011;63463;53.586;9.928;2023-06-22T03:32:21;15.57;;;10.77;;
5612;SDS011;63463;53.586;9.928;2023-06-22T03:34:57;19.07;;;11.77;;
5612;SDS011;63463;53.586;9.928;2023-06-22T03:37:27;19.07;;;10.97;;
5612;SDS011;63463;53.586;9.928;2023-06-22T03:40:02;21.40;;;12.07;;
5612;SDS011;63463;53.586;9.928;2023-06-22T03:42:54;18.70;;;12.30;;
5612;SDS011;63463;53.586;9.928;2023-06-22T03:45:27;17.90;;;11.60;;
5612;SDS011;63463;53.586;9.928;2023-06-22T03:48:02;23.30;;;11.80;;
5612;SDS011;63463;53.586;9.928;2023-06-22T03:50:33;19.07;;;12.20;;
5612;SDS011;63463;53.586;9.928;2023-06-22T03:52:59;17.30;;;11.13;;
5612;SDS011;63463;53.586;9.928;2023-06-22T03:55:26;18.37;;;12.47;;
5612;SDS011;63463;53.586;9.928;2023-06-22T03:57:57;18.40;;;10.43;;
5612;SDS011;63463;53.586;9.928;2023-06-22T04:00:51;20.87;;;12.53;;
5612;SDS011;63463;53.586;9.928;2023-06-22T04:03:17;20.33;;;11.27;;
5612;SDS011;63463;53.586;9.928;2023-06-22T04:05:45;16.77;;;11.43;;
5612;SDS011;63463;53.586;9.928;2023-06-22T04:08:17;18.77;;;11.60;;
5612;SDS011;63463;53.586;9.928;2023-06-22T04:10:46;19.50;;;11.33;;
5612;SDS011;63463;53.586;9.928;2023-06-22T04:13:21;23.23;;;11.63;;
5612;SDS011;63463;53.586;9.928;2023-06-22T04:18:33;13.93;;;10.27;;
5612;SDS011;63463;53.586;9.928;2023-06-22T04:21:02;24.83;;;11.60;;
5612;SDS011;63463;53.586;9.928;2023-06-22T04:23:33;17.33;;;10.60;;
5612;SDS011;63463;53.586;9.928;2023-06-22T04:25:59;13.60;;;10.07;;
5612;SDS011;63463;53.586;9.928;2023-06-22T04:28:25;19.70;;;11.27;;
5612;SDS011;63463;53.586;9.928;2023-06-22T04:30:53;13.70;;;9.03;;
5612;SDS011;63463;53.586;9.928;2023-06-22T04:33:23;15.03;;;9.37;;
5612;SDS011;63463;53.586;9.928;2023-06-22T04:35:53;21.70;;;9.80;;
5612;SDS011;63463;53.586;9.928;2023-06-22T04:38:29;13.50;;;9.97;;
5612;SDS011;63463;53.586;9.928;2023-06-22T04:41:01;11.43;;;8.20;;
5612;SDS011;63463;53.586;9.928;2023-06-22T04:43:30;15.10;;;9.57;;
5612;SDS011;63463;53.586;9.928;2023-06-22T04:45:59;12.40;;;8.83;;
5612;SDS011;63463;53.586;9.928;2023-06-22T04:48:31;15.53;;;9.90;;
5612;SDS011;63463;53.586;9.928;2023-06-22T04:51:09;10.93;;;8.70;;
5612;SDS011;63463;53.586;9.928;2023-06-22T04:53:44;18.50;;;9.87;;
5612;SDS011;63463;53.586;9.928;2023-06-22T04:56:35;16.37;;;9.40;;
5612;SDS011;63463;53.586;9.928;2023-06-22T04:59:09;12.00;;;8.30;;
5612;SDS011;63463;53.586;9.928;2023-06-22T05:01:40;11.50;;;8.33;;
5612;SDS011;63463;53.586;9.928;2023-06-22T05:04:08;19.17;;;9.20;;
5612;SDS011;63463;53.586;9.928;2023-06-22T05:06:36;14.33;;;9.17;;
5612;SDS011;63463;53.586;9.928;2023-06-22T05:09:04;12.73;;;8.70;;
5612;SDS011;63463;53.586;9.928;2023-06-22T05:11:42;17.57;;;9.00;;
5612;SDS011;63463;53.586;9.928;2023-06-22T05:14:49;12.13;;;8.10;;
5612;SDS011;63463;53.586;9.928;2023-06-22T05:17:21;16.13;;;7.73;;
5612;SDS011;63463;53.586;9.928;2023-06-22T05:19:52;15.30;;;8.03;;
5612;SDS011;63463;53.586;9.928;2023-06-22T05:25:28;9.00;;;6.50;;
5612;SDS011;63463;53.586;9.928;2023-06-22T05:27:57;6.03;;;5.30;;
5612;SDS011;63463;53.586;9.928;2023-06-22T05:33:33;6.00;;;4.70;;
5612;SDS011;63463;53.586;9.928;2023-06-22T05:36:09;10.47;;;4.97;;
5612;SDS011;63463;53.586;9.928;2023-06-22T05:38:41;7.40;;;4.70;;
5612;SDS011;63463;53.586;9.928;2023-06-22T05:41:07;9.00;;;5.17;;
5612;SDS011;63463;53.586;9.928;2023-06-22T05:43:33;7.30;;;5.10;;
5612;SDS011;63463;53.586;9.928;2023-06-22T05:46:03;6.87;;;4.60;;
5612;SDS011;63463;53.586;9.928;2023-06-22T05:48:35;9.53;;;5.40;;
5612;SDS011;63463;53.586;9.928;2023-06-22T05:51:07;9.83;;;5.43;;
5612;SDS011;63463;53.586;9.928;2023-06-22T05:53:36;6.23;;;5.03;;
5612;SDS011;63463;53.586;9.928;2023-06-22T05:56:04;4.97;;;4.47;;
5612;SDS011;63463;53.586;9.928;2023-06-22T05:58:30;5.50;;;4.50;;
5612;SDS011;63463;53.586;9.928;2023-06-22T06:00:56;7.17;;;4.20;;
5612;SDS011;63463;53.586;9.928;2023-06-22T06:03:25;5.90;;;4.50;;
5612;SDS011;63463;53.586;9.928;2023-06-22T06:05:56;6.50;;;4.47;;
5612;SDS011;63463;53.586;9.928;2023-06-22T06:08:22;6.50;;;4.40;;
5612;SDS011;63463;53.586;9.928;2023-06-22T06:10:54;5.63;;;4.13;;
5612;SDS011;63463;53.586;9.928;2023-06-22T06:13:24;4.33;;;3.57;;
5612;SDS011;63463;53.586;9.928;2023-06-22T06:15:52;6.30;;;3.97;;
5612;SDS011;63463;53.586;9.928;2023-06-22T06:18:21;4.03;;;3.70;;
5612;SDS011;63463;53.586;9.928;2023-06-22T06:20:53;8.13;;;4.10;;
5612;SDS011;63463;53.586;9.928;2023-06-22T06:23:25;8.40;;;4.77;;
5612;SDS011;63463;53.586;9.928;2023-06-22T06:25:59;5.47;;;3.80;;
5612;SDS011;63463;53.586;9.928;2023-06-22T06:28:31;8.13;;;4.13;;
5612;SDS011;63463;53.586;9.928;2023-06-22T06:31:00;8.30;;;4.27;;
5612;SDS011;63463;53.586;9.928;2023-06-22T06:33:26;7.77;;;4.73;;
5612;SDS011;63463;53.586;9.928;2023-06-22T06:35:52;4.20;;;3.80;;
5612;SDS011;63463;53.586;9.928;2023-06-22T06:38:26;7.90;;;4.27;;
5612;SDS011;63463;53.586;9.928;2023-06-22T06:40:54;10.70;;;4.50;;
5612;SDS011;63463;53.586;9.928;2023-06-22T06:43:20;4.20;;;3.80;;
5612;SDS011;63463;53.586;9.928;2023-06-22T06:45:47;4.30;;;3.90;;
5612;SDS011;63463;53.586;9.928;2023-06-22T06:48:16;7.50;;;4.10;;
5612;SDS011;63463;53.586;9.928;2023-06-22T06:50:45;4.27;;;3.80;;
5612;SDS011;63463;53.586;9.928;2023-06-22T06:53:15;6.10;;;4.53;;
5612;SDS011;63463;53.586;9.928;2023-06-22T06:55:49;5.03;;;4.20;;
5612;SDS011;63463;53.586;9.928;2023-06-22T06:58:41;4.60;;;3.90;;
5612;SDS011;63463;53.586;9.928;2023-06-22T07:01:20;5.90;;;3.93;;
5612;SDS011;63463;53.586;9.928;2023-06-22T07:03:50;4.60;;;4.20;;
5612;SDS011;63463;53.586;9.928;2023-06-22T07:06:19;5.23;;;3.93;;
5612;SDS011;63463;53.586;9.928;2023-06-22T07:08:49;10.93;;;3.90;;
5612;SDS011;63463;53.586;9.928;2023-06-22T07:11:15;4.40;;;4.00;;
5612;SDS011;63463;53.586;9.928;2023-06-22T07:13:41;4.27;;;3.87;;
5612;SDS011;63463;53.586;9.928;2023-06-22T07:16:21;5.60;;;4.40;;
5612;SDS011;63463;53.586;9.928;2023-06-22T07:18:57;3.87;;;3.57;;
5612;SDS011;63463;53.586;9.928;2023-06-22T07:22:06;4.93;;;3.90;;
5612;SDS011;63463;53.586;9.928;2023-06-22T07:24:16;5.37;;;3.83;;
5612;SDS011;63463;53.586;9.928;2023-06-22T07:26:42;4.40;;;3.90;;
5612;SDS011;63463;53.586;9.928;2023-06-22T07:29:20;7.00;;;3.80;;
5612;SDS011;63463;53.586;9.928;2023-06-22T07:31:52;10.13;;;4.43;;
5612;SDS011;63463;53.586;9.928;2023-06-22T07:34:24;3.70;;;3.23;;
5612;SDS011;63463;53.586;9.928;2023-06-22T07:36:54;6.70;;;3.33;;
5612;SDS011;63463;53.586;9.928;2023-06-22T07:39:20;6.20;;;3.30;;
5612;SDS011;63463;53.586;9.928;2023-06-22T07:41:51;5.20;;;3.40;;
5612;SDS011;63463;53.586;9.928;2023-06-22T07:44:24;7.87;;;3.60;;
5612;SDS011;63463;53.586;9.928;2023-06-22T07:47:02;8.10;;;3.13;;
5612;SDS011;63463;53.586;9.928;2023-06-22T07:49:31;4.10;;;3.40;;
5612;SDS011;63463;53.586;9.928;2023-06-22T07:52:00;2.90;;;2.67;;
5612;SDS011;63463;53.586;9.928;2023-06-22T07:54:30;7.57;;;3.57;;
5612;SDS011;63463;53.586;9.928;2023-06-22T07:57:05;4.90;;;3.10;;
5612;SDS011;63463;53.586;9.928;2023-06-22T07:59:32;11.03;;;3.70;;
5612;SDS011;63463;53.586;9.928;2023-06-22T08:02:11;3.90;;;3.50;;
5612;SDS011;63463;53.586;9.928;2023-06-22T08:04:43;5.43;;;3.00;;
5612;SDS011;63463;53.586;9.928;2023-06-22T08:07:09;5.53;;;3.00;;
5612;SDS011;63463;53.586;9.928;2023-06-22T08:09:38;3.87;;;3.53;;
5612;SDS011;63463;53.586;9.928;2023-06-22T08:12:15;5.10;;;3.30;;
5612;SDS011;63463;53.586;9.928;2023-06-22T08:14:44;3.87;;;3.10;;
5612;SDS011;63463;53.586;9.928;2023-06-22T08:17:13;8.10;;;3.27;;
5612;SDS011;63463;53.586;9.928;2023-06-22T08:19:42;4.40;;;3.40;;
5612;SDS011;63463;53.586;9.928;2023-06-22T08:22:09;13.13;;;3.40;;
5612;SDS011;63463;53.586;9.928;2023-06-22T08:24:35;3.87;;;3.37;;
5612;SDS011;63463;53.586;9.928;2023-06-22T08:27:04;3.40;;;3.13;;
5612;SDS011;63463;53.586;9.928;2023-06-22T08:29:36;4.10;;;3.50;;
5612;SDS011;63463;53.586;9.928;2023-06-22T08:32:03;3.80;;;3.10;;
5612;SDS011;63463;53.586;9.928;2023-06-22T08:34:30;3.80;;;3.42;;
5612;SDS011;63463;53.586;9.928;2023-06-22T08:37:02;5.53;;;3.28;;
5612;SDS011;63463;53.586;9.928;2023-06-22T08:39:34;4.88;;;3.10;;
5612;SDS011;63463;53.586;9.928;2023-06-22T08:42:07;3.88;;;2.85;;
5612;SDS011;63463;53.586;9.928;2023-06-22T08:44:36;3.65;;;2.67;;
5612;SDS011;63463;53.586;9.928;2023-06-22T08:47:03;3.37;;;2.23;;
5612;SDS011;63463;53.586;9.928;2023-06-22T08:49:29;3.45;;;2.33;;
5612;SDS011;63463;53.586;9.928;2023-06-22T08:51:55;4.93;;;2.53;;
5612;SDS011;63463;53.586;9.928;2023-06-22T08:54:30;4.07;;;3.05;;
5612;SDS011;63463;53.586;9.928;2023-06-22T08:57:08;6.32;;;3.25;;
5612;SDS011;63463;53.586;9.928;2023-06-22T08:59:49;8.93;;;2.88;;
5612;SDS011;63463;53.586;9.928;2023-06-22T09:02:54;4.70;;;3.08;;
5612;SDS011;63463;53.586;9.928;2023-06-22T09:05:28;3.53;;;3.22;;
5612;SDS011;63463;53.586;9.928;2023-06-22T09:10:49;5.47;;;2.70;;
5612;SDS011;63463;53.586;9.928;2023-06-22T09:13:37;4.82;;;2.75;;
5612;SDS011;63463;53.586;9.928;2023-06-22T09:16:07;3.50;;;3.20;;
5612;SDS011;63463;53.586;9.928;2023-06-22T09:18:39;5.50;;;2.75;;
5612;SDS011;63463;53.586;9.928;2023-06-22T09:21:11;3.20;;;2.90;;
5612;SDS011;63463;53.586;9.928;2023-06-22T09:23:43;3.10;;;2.85;;
5612;SDS011;63463;53.586;9.928;2023-06-22T09:26:15;8.45;;;3.10;;
5612;SDS011;63463;53.586;9.928;2023-06-22T09:28:51;3.13;;;2.67;;
5612;SDS011;63463;53.586;9.928;2023-06-22T09:31:23;4.10;;;3.22;;
5612;SDS011;63463;53.586;9.928;2023-06-22T09:33:55;4.57;;;3.28;;
5612;SDS011;63463;53.586;9.928;2023-06-22T09:36:24;3.20;;;2.40;;
5612;SDS011;63463;53.586;9.928;2023-06-22T09:38:53;2.95;;;2.60;;
5612;SDS011;63463;53.586;9.928;2023-06-22T09:41:30;5.43;;;3.70;;
5612;SDS011;63463;53.586;9.928;2023-06-22T09:43:56;3.00;;;2.80;;
5612;SDS011;63463;53.586;9.928;2023-06-22T09:46:34;5.40;;;3.20;;
5612;SDS011;63463;53.586;9.928;2023-06-22T09:49:00;6.03;;;3.42;;
5612;SDS011;63463;53.586;9.928;2023-06-22T09:51:26;4.43;;;3.85;;
5612;SDS011;63463;53.586;9.928;2023-06-22T09:56:57;4.63;;;2.72;;
5612;SDS011;63463;53.586;9.928;2023-06-22T09:59:24;3.55;;;2.85;;
5612;SDS011;63463;53.586;9.928;2023-06-22T10:01:50;5.95;;;3.13;;
5612;SDS011;63463;53.586;9.928;2023-06-22T10:07:05;3.83;;;3.47;;
5612;SDS011;63463;53.586;9.928;2023-06-22T10:09:31;4.05;;;2.85;;
5612;SDS011;63463;53.586;9.928;2023-06-22T10:11:58;2.55;;;2.35;;
5612;SDS011;63463;53.586;9.928;2023-06-22T10:14:31;4.82;;;2.75;;
5612;SDS011;63463;53.586;9.928;2023-06-22T10:16:59;3.22;;;2.97;;
5612;SDS011;63463;53.586;9.928;2023-06-22T10:19:25;2.90;;;2.70;;
5612;SDS011;63463;53.586;9.928;2023-06-22T10:21:52;5.55;;;3.50;;
5612;SDS011;63463;53.586;9.928;2023-06-22T10:24:20;4.07;;;3.40;;
5612;SDS011;63463;53.586;9.928;2023-06-22T10:26:47;4.38;;;2.90;;
5612;SDS011;63463;53.586;9.928;2023-06-22T10:29:25;3.42;;;3.13;;
5612;SDS011;63463;53.586;9.928;2023-06-22T10:31:55;4.55;;;2.92;;
5612;SDS011;63463;53.586;9.928;2023-06-22T10:34:29;3.65;;;3.00;;
5612;SDS011;63463;53.586;9.928;2023-06-22T10:37:01;3.03;;;2.83;;
5612;SDS011;63463;53.586;9.928;2023-06-22T10:39:27;3.63;;;2.90;;
5612;SDS011;63463;53.586;9.928;2023-06-22T10:41:56;4.03;;;3.20;;
5612;SDS011;63463;53.586;9.928;2023-06-22T10:44:31;3.15;;;2.95;;
5612;SDS011;63463;53.586;9.928;2023-06-22T10:47:09;6.20;;;3.85;;
5612;SDS011;63463;53.586;9.928;2023-06-22T10:49:55;2.95;;;2.75;;
5612;SDS011;63463;53.586;9.928;2023-06-22T10:52:22;4.18;;;3.78;;
5612;SDS011;63463;53.586;9.928;2023-06-22T10:54:50;3.72;;;3.15;;
5612;SDS011;63463;53.586;9.928;2023-06-22T10:57:17;7.20;;;3.55;;
5612;SDS011;63463;53.586;9.928;2023-06-22T10:59:56;7.75;;;3.28;;
5612;SDS011;63463;53.586;9.928;2023-06-22T11:02:25;3.90;;;3.53;;
5612;SDS011;63463;53.586;9.928;2023-06-22T11:04:55;3.30;;;3.00;;
5612;SDS011;63463;53.586;9.928;2023-06-22T11:07:21;5.22;;;3.90;;
5612;SDS011;63463;53.586;9.928;2023-06-22T11:09:55;3.78;;;3.58;;
5612;SDS011;63463;53.586;9.928;2023-06-22T11:12:23;3.40;;;3.10;;
5612;SDS011;63463;53.586;9.928;2023-06-22T11:14:49;2.60;;;2.40;;
5612;SDS011;63463;53.586;9.928;2023-06-22T11:17:16;2.97;;;2.78;;
5612;SDS011;63463;53.586;9.928;2023-06-22T11:19:46;7.07;;;2.90;;
5612;SDS011;63463;53.586;9.928;2023-06-22T11:22:16;3.60;;;3.30;;
5612;SDS011;63463;53.586;9.928;2023-06-22T11:24:45;3.78;;;3.58;;
5612;SDS011;63463;53.586;9.928;2023-06-22T11:27:13;3.70;;;3.35;;
5612;SDS011;63463;53.586;9.928;2023-06-22T11:29:42;3.53;;;3.22;;
5612;SDS011;63463;53.586;9.928;2023-06-22T11:32:08;2.95;;;2.75;;
5612;SDS011;63463;53.586;9.928;2023-06-22T11:34:37;3.65;;;3.28;;
5612;SDS011;63463;53.586;9.928;2023-06-22T11:37:06;8.15;;;3.47;;
5612;SDS011;63463;53.586;9.928;2023-06-22T11:39:34;4.57;;;4.18;;
5612;SDS011;63463;53.586;9.928;2023-06-22T11:42:18;4.28;;;3.88;;
5612;SDS011;63463;53.586;9.928;2023-06-22T11:44:45;4.72;;;4.32;;
5612;SDS011;63463;53.586;9.928;2023-06-22T11:47:14;5.60;;;4.40;;
5612;SDS011;63463;53.586;9.928;2023-06-22T11:49:43;5.05;;;4.55;;
5612;SDS011;63463;53.586;9.928;2023-06-22T11:52:09;17.42;;;3.50;;
5612;SDS011;63463;53.586;9.928;2023-06-22T11:54:37;3.38;;;3.08;;
5612;SDS011;63463;53.586;9.928;2023-06-22T11:57:05;5.68;;;3.42;;
5612;SDS011;63463;53.586;9.928;2023-06-22T11:59:33;3.95;;;3.55;;
5612;SDS011;63463;53.586;9.928;2023-06-22T12:02:00;4.57;;;4.15;;
5612;SDS011;63463;53.586;9.928;2023-06-22T12:04:26;5.55;;;4.03;;
5612;SDS011;63463;53.586;9.928;2023-06-22T12:06:58;5.13;;;4.50;;
5612;SDS011;63463;53.586;9.928;2023-06-22T12:10:25;3.38;;;3.13;;
5612;SDS011;63463;53.586;9.928;2023-06-22T12:12:33;4.03;;;3.72;;
5612;SDS011;63463;53.586;9.928;2023-06-22T12:15:04;4.32;;;3.92;;
5612;SDS011;63463;53.586;9.928;2023-06-22T12:17:31;3.75;;;3.42;;
5612;SDS011;63463;53.586;9.928;2023-06-22T12:19:58;4.55;;;4.10;;
5612;SDS011;63463;53.586;9.928;2023-06-22T12:22:30;3.90;;;3.60;;
5612;SDS011;63463;53.586;9.928;2023-06-22T12:24:56;5.57;;;3.60;;
5612;SDS011;63463;53.586;9.928;2023-06-22T12:27:22;4.45;;;4.15;;
5612;SDS011;63463;53.586;9.928;2023-06-22T12:29:55;4.30;;;3.90;;
5612;SDS011;63463;53.586;9.928;2023-06-22T12:32:24;6.68;;;3.63;;
5612;SDS011;63463;53.586;9.928;2023-06-22T12:34:56;4.00;;;3.72;;
5612;SDS011;63463;53.586;9.928;2023-06-22T12:40:18;4.72;;;4.20;;
5612;SDS011;63463;53.586;9.928;2023-06-22T12:42:47;3.60;;;3.40;;
5612;SDS011;63463;53.586;9.928;2023-06-22T12:45:13;4.43;;;4.03;;
5612;SDS011;63463;53.586;9.928;2023-06-22T12:47:41;4.28;;;3.85;;
5612;SDS011;63463;53.586;9.928;2023-06-22T12:50:20;7.95;;;4.00;;
5612;SDS011;63463;53.586;9.928;2023-06-22T12:52:53;5.95;;;4.15;;
5612;SDS011;63463;53.586;9.928;2023-06-22T12:55:27;7.22;;;4.30;;
5612;SDS011;63463;53.586;9.928;2023-06-22T13:00:58;9.15;;;4.30;;
5612;SDS011;63463;53.586;9.928;2023-06-22T13:03:33;4.70;;;4.30;;
5612;SDS011;63463;53.586;9.928;2023-06-22T13:05:59;6.53;;;4.38;;
5612;SDS011;63463;53.586;9.928;2023-06-22T13:08:37;4.70;;;3.97;;
5612;SDS011;63463;53.586;9.928;2023-06-22T13:11:03;5.07;;;4.60;;
5612;SDS011;63463;53.586;9.928;2023-06-22T13:13:35;6.03;;;5.53;;
5612;SDS011;63463;53.586;9.928;2023-06-22T13:16:04;16.08;;;5.47;;
5612;SDS011;63463;53.586;9.928;2023-06-22T13:18:30;5.63;;;4.35;;
5612;SDS011;63463;53.586;9.928;2023-06-22T13:20:59;8.43;;;5.05;;
5612;SDS011;63463;53.586;9.928;2023-06-22T13:23:31;5.00;;;4.50;;
5612;SDS011;63463;53.586;9.928;2023-06-22T13:25:57;5.40;;;4.85;;
5612;SDS011;63463;53.586;9.928;2023-06-22T13:28:30;5.28;;;4.78;;
5612;SDS011;63463;53.586;9.928;2023-06-22T13:33:58;4.72;;;4.32;;
5612;SDS011;63463;53.586;9.928;2023-06-22T13:36:29;6.65;;;4.82;;
5612;SDS011;63463;53.586;9.928;2023-06-22T13:39:07;4.90;;;4.10;;
5612;SDS011;63463;53.586;9.928;2023-06-22T13:41:33;5.85;;;5.20;;
5612;SDS011;63463;53.586;9.928;2023-06-22T13:44:03;8.77;;;4.63;;
5612;SDS011;63463;53.586;9.928;2023-06-22T13:49:18;5.63;;;4.63;;
5612;SDS011;63463;53.586;9.928;2023-06-22T13:51:56;5.50;;;5.00;;
5612;SDS011;63463;53.586;9.928;2023-06-22T14:04:15;5.15;;;4.65;;
5612;SDS011;63463;53.586;9.928;2023-06-22T14:06:44;4.68;;;4.35;;
5612;SDS011;63463;53.586;9.928;2023-06-22T14:09:10;7.68;;;5.28;;
5612;SDS011;63463;53.586;9.928;2023-06-22T14:11:46;6.68;;;4.20;;
5612;SDS011;63463;53.586;9.928;2023-06-22T14:14:20;4.70;;;4.30;;
5612;SDS011;63463;53.586;9.928;2023-06-22T14:16:59;4.25;;;3.90;;
5612;SDS011;63463;53.586;9.928;2023-06-22T14:19:25;5.57;;;5.07;;
5612;SDS011;63463;53.586;9.928;2023-06-22T14:21:52;5.68;;;4.45;;
5612;SDS011;63463;53.586;9.928;2023-06-22T14:24:20;4.93;;;4.53;;
5612;SDS011;63463;53.586;9.928;2023-06-22T14:26:48;5.30;;;4.80;;
5612;SDS011;63463;53.586;9.928;2023-06-22T14:29:17;8.85;;;5.30;;
5612;SDS011;63463;53.586;9.928;2023-06-22T14:31:48;5.47;;;4.97;;
5612;SDS011;63463;53.586;9.928;2023-06-22T14:34:17;5.25;;;4.75;;
5612;SDS011;63463;53.586;9.928;2023-06-22T14:36:44;4.90;;;4.50;;
5612;SDS011;63463;53.586;9.928;2023-06-22T14:39:14;6.35;;;5.00;;
5612;SDS011;63463;53.586;9.928;2023-06-22T14:41:41;4.72;;;4.43;;
5612;SDS011;63463;53.586;9.928;2023-06-22T14:44:09;7.10;;;5.32;;
5612;SDS011;63463;53.586;9.928;2023-06-22T14:46:44;7.82;;;4.20;;
5612;SDS011;63463;53.586;9.928;2023-06-22T14:49:10;5.20;;;4.40;;
5612;SDS011;63463;53.586;9.928;2023-06-22T14:51:38;9.00;;;5.15;;
5612;SDS011;63463;53.586;9.928;2023-06-22T14:54:14;5.38;;;4.93;;
5612;SDS011;63463;53.586;9.928;2023-06-22T14:56:40;9.25;;;5.18;;
5612;SDS011;63463;53.586;9.928;2023-06-22T14:59:06;5.53;;;5.13;;
5612;SDS011;63463;53.586;9.928;2023-06-22T15:01:33;10.25;;;5.72;;
5612;SDS011;63463;53.586;9.928;2023-06-22T15:03:59;7.22;;;5.50;;
5612;SDS011;63463;53.586;9.928;2023-06-22T15:06:26;7.20;;;5.68;;
5612;SDS011;63463;53.586;9.928;2023-06-22T15:08:59;5.97;;;5.20;;
5612;SDS011;63463;53.586;9.928;2023-06-22T15:11:28;6.22;;;5.63;;
5612;SDS011;63463;53.586;9.928;2023-06-22T15:13:58;6.57;;;5.13;;
5612;SDS011;63463;53.586;9.928;2023-06-22T15:16:28;7.90;;;5.68;;
5612;SDS011;63463;53.586;9.928;2023-06-22T15:18:57;7.10;;;5.60;;
5612;SDS011;63463;53.586;9.928;2023-06-22T15:21:23;5.88;;;5.25;;
5612;SDS011;63463;53.586;9.928;2023-06-22T15:23:50;10.52;;;5.68;;
5612;SDS011;63463;53.586;9.928;2023-06-22T15:26:16;6.22;;;5.40;;
5612;SDS011;63463;53.586;9.928;2023-06-22T15:28:49;7.55;;;5.78;;
5612;SDS011;63463;53.586;9.928;2023-06-22T15:31:15;5.55;;;5.00;;
5612;SDS011;63463;53.586;9.928;2023-06-22T15:33:43;5.50;;;4.85;;
5612;SDS011;63463;53.586;9.928;2023-06-22T15:36:09;5.90;;;5.32;;
5612;SDS011;63463;53.586;9.928;2023-06-22T15:38:35;4.68;;;4.38;;
5612;SDS011;63463;53.586;9.928;2023-06-22T15:41:02;5.20;;;4.80;;
5612;SDS011;63463;53.586;9.928;2023-06-22T15:43:28;8.43;;;5.30;;
5612;SDS011;63463;53.586;9.928;2023-06-22T15:46:03;8.88;;;4.85;;
5612;SDS011;63463;53.586;9.928;2023-06-22T15:48:30;5.88;;;5.00;;
5612;SDS011;63463;53.586;9.928;2023-06-22T15:50:58;5.65;;;5.15;;
5612;SDS011;63463;53.586;9.928;2023-06-22T15:53:34;5.55;;;4.95;;
5612;SDS011;63463;53.586;9.928;2023-06-22T15:56:06;5.72;;;4.82;;
5612;SDS011;63463;53.586;9.928;2023-06-22T15:58:35;7.05;;;5.97;;
5612;SDS011;63463;53.586;9.928;2023-06-22T16:01:03;9.70;;;4.85;;
5612;SDS011;63463;53.586;9.928;2023-06-22T16:03:34;9.13;;;5.03;;